Time;durP1;ratioP1;P1;durP2;ratioP2;P2;SDS_P1;SDS_P2;PMS_P1;PMS_P2;Temp;Humidity;BMP_temperature;BMP_pressure;BME280_temperature;BME280_humidity;BME280_pressure;Samples;Min_cycle;Max_cycle;Signal;HPM_P1;HPM_P2
2022/08/01 00:01:28;;;;;;;7.57;2.70;;;22.70;92.20;;;;;;5016872;28;20465;-81
2022/08/01 00:04:01;;;;;;;2.90;2.70;;;22.70;92.20;;;;;;4999555;28;20444;-81
2022/08/01 00:06:30;;;;;;;2.90;2.70;;;22.70;92.20;;;;;;4999403;28;20442;-78
2022/08/01 00:09:00;;;;;;;3.30;3.10;;;22.60;92.20;;;;;;5017313;28;20401;-81
2022/08/01 00:11:28;;;;;;;3.03;2.60;;;22.60;92.30;;;;;;4999288;28;20523;-79
2022/08/01 00:14:02;;;;;;;2.90;2.70;;;22.60;92.40;;;;;;4999324;28;20429;-79
2022/08/01 00:16:32;;;;;;;3.27;2.97;;;22.60;92.70;;;;;;4999560;28;20182;-79
2022/08/01 00:19:12;;;;;;;3.53;3.23;;;22.50;92.50;;;;;;4999076;28;20424;-82
2022/08/01 00:21:45;;;;;;;3.00;2.80;;;22.50;92.60;;;;;;4999379;28;20494;-81
2022/08/01 00:24:11;;;;;;;2.97;2.73;;;22.40;92.70;;;;;;4999225;28;20451;-79
2022/08/01 00:26:37;;;;;;;3.30;3.00;;;22.40;92.70;;;;;;4998845;28;20456;-80
2022/08/01 00:29:04;;;;;;;2.70;2.50;;;22.40;92.80;;;;;;4999370;28;20206;-79
2022/08/01 00:31:31;;;;;;;3.27;2.67;;;22.30;92.80;;;;;;4998966;28;20179;-80
2022/08/01 00:34:07;;;;;;;3.10;2.90;;;22.30;92.90;;;;;;4998733;28;20421;-80
2022/08/01 00:36:38;;;;;;;3.10;2.80;;;22.30;93.00;;;;;;4998878;28;20491;-80
2022/08/01 00:39:25;;;;;;;3.80;3.30;;;22.30;93.00;;;;;;5016419;28;20404;-80
2022/08/01 00:41:57;;;;;;;2.90;2.70;;;22.20;93.00;;;;;;4998545;28;20867;-78
2022/08/01 00:44:32;;;;;;;4.30;2.80;;;22.20;93.10;;;;;;5016479;28;20400;-80
2022/08/01 00:47:02;;;;;;;2.70;2.50;;;22.20;93.10;;;;;;4998107;28;20532;-77
2022/08/01 00:49:33;;;;;;;4.00;3.03;;;22.10;93.10;;;;;;4998513;28;20937;-78
2022/08/01 00:52:05;;;;;;;2.70;2.50;;;22.10;93.20;;;;;;4998761;28;20453;-79
2022/08/01 00:54:51;;;;;;;3.13;2.83;;;22.00;93.20;;;;;;4998315;28;20507;-80
2022/08/01 00:57:30;;;;;;;3.40;3.10;;;22.00;93.30;;;;;;5014660;28;20555;-78
2022/08/01 01:00:19;;;;;;;2.83;2.63;;;22.00;93.40;;;;;;4997975;28;20412;-80
2022/08/01 01:02:47;;;;;;;3.17;2.87;;;21.90;93.40;;;;;;4998511;28;20491;-78
2022/08/01 01:05:17;;;;;;;3.53;3.23;;;21.90;93.50;;;;;;5016090;28;20451;-78
2022/08/01 01:08:05;;;;;;;3.30;3.00;;;21.90;93.60;;;;;;4998172;28;20874;-78
2022/08/01 01:10:37;;;;;;;3.53;3.23;;;21.80;93.80;;;;;;4997320;28;20515;-78
2022/08/01 01:13:29;;;;;;;3.80;3.40;;;21.80;93.90;;;;;;4997571;28;20488;-80
2022/08/01 01:16:09;;;;;;;4.50;2.80;;;21.70;93.90;;;;;;4997823;28;20441;-78
2022/08/01 01:18:54;;;;;;;4.30;3.00;;;21.60;94.00;;;;;;4998226;28;20432;-80
2022/08/01 01:21:21;;;;;;;4.70;3.63;;;21.60;94.20;;;;;;4997649;28;20468;-81
2022/08/01 01:24:01;;;;;;;3.67;3.37;;;21.50;94.30;;;;;;4997863;28;20413;-81
2022/08/01 01:27:00;;;;;;;3.57;3.27;;;21.50;94.40;;;;;;5015377;28;20432;-80
2022/08/01 01:29:40;;;;;;;4.23;3.30;;;21.50;94.50;;;;;;4983835;28;20456;-80
2022/08/01 01:32:17;;;;;;;3.90;3.53;;;21.50;94.70;;;;;;4997294;28;20463;-81
2022/08/01 01:34:50;;;;;;;3.23;3.00;;;21.40;94.60;;;;;;4997280;28;20515;-78
2022/08/01 01:37:23;;;;;;;3.73;3.43;;;21.40;94.70;;;;;;4997665;28;20445;-77
2022/08/01 01:40:05;;;;;;;4.53;4.10;;;21.40;94.80;;;;;;4997354;28;20423;-81
2022/08/01 01:42:37;;;;;;;3.40;3.07;;;21.40;94.90;;;;;;4997405;28;20522;-80
2022/08/01 01:45:05;;;;;;;3.73;3.37;;;21.30;94.90;;;;;;4997290;28;20753;-77
2022/08/01 01:47:44;;;;;;;3.50;3.20;;;21.30;95.00;;;;;;4997289;28;20453;-77
2022/08/01 01:50:18;;;;;;;3.40;2.67;;;21.20;95.10;;;;;;4997148;28;20510;-78
2022/08/01 01:52:49;;;;;;;3.27;3.00;;;21.20;95.30;;;;;;5015090;28;20452;-78
2022/08/01 01:55:26;;;;;;;3.13;2.90;;;21.20;95.30;;;;;;4997229;28;20523;-77
2022/08/01 01:58:07;;;;;;;9.00;3.60;;;21.10;95.40;;;;;;4997354;28;20456;-80
2022/08/01 02:00:34;;;;;;;3.93;3.53;;;21.10;95.40;;;;;;4997760;28;20482;-80
2022/08/01 02:03:05;;;;;;;3.80;3.50;;;21.00;95.60;;;;;;4996943;28;20826;-78
2022/08/01 02:05:34;;;;;;;3.90;3.60;;;21.00;95.60;;;;;;4997399;28;20474;-80
2022/08/01 02:08:06;;;;;;;4.30;4.00;;;21.00;95.70;;;;;;5014286;28;20641;-78
2022/08/01 02:13:38;;;;;;;3.63;3.30;;;20.90;95.80;;;;;;5014953;28;20502;-78
2022/08/01 02:16:05;;;;;;;3.80;2.90;;;20.90;95.90;;;;;;4996908;28;20428;-78
2022/08/01 02:18:51;;;;;;;4.33;3.90;;;20.80;96.10;;;;;;4997133;28;20455;-80
2022/08/01 02:21:26;;;;;;;4.30;3.10;;;20.80;96.10;;;;;;4996905;28;20480;-77
2022/08/01 02:24:08;;;;;;;3.90;3.60;;;20.80;96.20;;;;;;4996565;28;20779;-81
2022/08/01 02:26:48;;;;;;;3.23;2.93;;;20.80;96.30;;;;;;4996764;28;20811;-77
2022/08/01 02:29:40;;;;;;;3.67;3.37;;;20.70;96.30;;;;;;4996658;28;20421;-81
2022/08/01 02:32:10;;;;;;;3.23;3.00;;;20.70;96.60;;;;;;4996550;28;20818;-77
2022/08/01 02:35:04;;;;;;;3.70;3.40;;;20.60;96.60;;;;;;4996629;28;20466;-77
2022/08/01 02:37:36;;;;;;;3.70;3.40;;;20.50;96.70;;;;;;4996502;28;20460;-78
2022/08/01 02:40:13;;;;;;;3.97;3.67;;;20.50;96.80;;;;;;4996587;28;20416;-80
2022/08/01 02:42:44;;;;;;;4.73;3.83;;;20.40;96.90;;;;;;4996400;28;20498;-78
2022/08/01 02:45:24;;;;;;;4.43;3.90;;;20.30;97.00;;;;;;4996919;28;20488;-78
2022/08/01 02:47:57;;;;;;;4.93;3.73;;;20.30;97.10;;;;;;4996450;28;20980;-78
2022/08/01 02:50:31;;;;;;;4.53;3.33;;;20.20;97.20;;;;;;4996572;28;20438;-81
2022/08/01 02:53:00;;;;;;;3.73;3.43;;;20.20;97.30;;;;;;4996663;28;20463;-81
2022/08/01 02:55:47;;;;;;;11.33;3.70;;;20.10;97.40;;;;;;4996619;28;20434;-81
2022/08/01 03:01:27;;;;;;;6.50;3.27;;;20.10;97.60;;;;;;5014349;28;20529;-81
2022/08/01 03:03:59;;;;;;;3.50;3.20;;;20.00;97.70;;;;;;4996644;28;20438;-81
2022/08/01 03:06:28;;;;;;;3.90;3.60;;;20.00;97.80;;;;;;4996133;28;20520;-78
2022/08/01 03:08:59;;;;;;;4.90;3.93;;;19.90;98.00;;;;;;4996722;28;20821;-77
2022/08/01 03:11:32;;;;;;;4.50;4.10;;;19.90;98.30;;;;;;4996202;28;20434;-81
2022/08/01 03:14:09;;;;;;;4.60;4.20;;;19.90;98.10;;;;;;4996226;28;20478;-81
2022/08/01 03:16:41;;;;;;;4.87;3.67;;;19.80;98.20;;;;;;4996824;28;20459;-78
2022/08/01 03:19:11;;;;;;;5.13;4.20;;;19.80;98.30;;;;;;4996292;28;20447;-78
2022/08/01 03:21:47;;;;;;;7.83;3.53;;;19.80;98.40;;;;;;5014286;28;20884;-81
2022/08/01 03:24:14;;;;;;;8.97;3.80;;;19.80;98.40;;;;;;4996838;28;20934;-81
2022/08/01 03:26:48;;;;;;;4.67;3.90;;;19.80;98.40;;;;;;4996100;28;20505;-77
2022/08/01 03:29:32;;;;;;;5.07;4.07;;;19.80;98.40;;;;;;4996404;28;20416;-81
2022/08/01 03:32:03;;;;;;;7.23;5.50;;;19.80;98.40;;;;;;4996412;28;20458;-78
2022/08/01 03:34:38;;;;;;;6.40;5.10;;;19.80;98.40;;;;;;4997556;28;20783;-81
2022/08/01 03:37:29;;;;;;;6.30;5.50;;;19.80;98.40;;;;;;5000066;28;20458;-81
2022/08/01 03:40:02;;;;;;;4.90;4.40;;;19.80;98.50;;;;;;4999978;28;20423;-77
2022/08/01 03:42:33;;;;;;;6.20;5.60;;;19.70;98.50;;;;;;4999681;28;20491;-78
2022/08/01 03:45:09;;;;;;;6.67;4.53;;;19.80;98.50;;;;;;4999788;28;20417;-78
2022/08/01 03:47:46;;;;;;;6.83;4.10;;;19.70;98.60;;;;;;4999453;28;20897;-81
2022/08/01 03:50:29;;;;;;;12.03;4.60;;;19.70;98.60;;;;;;4999620;28;20561;-81
2022/08/01 03:52:57;;;;;;;10.73;4.80;;;19.60;98.80;;;;;;4999454;28;20463;-78
2022/08/01 03:55:30;;;;;;;6.20;4.37;;;19.50;98.90;;;;;;5017152;28;20420;-78
2022/08/01 03:58:04;;;;;;;11.70;5.27;;;19.50;99.10;;;;;;4999734;28;20462;-78
2022/08/01 04:00:30;;;;;;;26.10;6.40;;;19.40;99.20;;;;;;4999493;28;20428;-77
2022/08/01 04:03:08;;;;;;;13.60;5.73;;;19.40;99.30;;;;;;4999266;28;20544;-81
2022/08/01 04:05:45;;;;;;;7.43;4.70;;;19.40;99.50;;;;;;4999387;28;20778;-81
2022/08/01 04:08:25;;;;;;;4.67;4.27;;;19.30;99.60;;;;;;4998921;28;20813;-81
2022/08/01 04:10:58;;;;;;;4.00;3.60;;;19.30;99.70;;;;;;4999156;28;20423;-81
2022/08/01 04:13:24;;;;;;;4.47;4.07;;;19.30;99.80;;;;;;5016842;28;20440;-78
2022/08/01 04:15:51;;;;;;;6.63;4.70;;;19.30;99.90;;;;;;4999019;28;20501;-77
2022/08/01 04:18:18;;;;;;;4.70;3.93;;;19.30;99.90;;;;;;4999054;28;20447;-77
2022/08/01 04:20:53;;;;;;;5.57;4.53;;;19.30;99.90;;;;;;4998810;28;20428;-80
2022/08/01 04:23:27;;;;;;;5.93;4.60;;;19.40;99.90;;;;;;4999358;28;20834;-80
2022/08/01 04:25:55;;;;;;;137.77;70.57;;;19.40;99.90;;;;;;4998936;28;20431;-77
2022/08/01 04:28:24;;;;;;;34.57;18.23;;;19.50;99.90;;;;;;4997692;28;20811;-78
2022/08/01 04:30:54;;;;;;;12.63;7.80;;;19.50;99.90;;;;;;4996768;28;20530;-78
2022/08/01 04:33:42;;;;;;;5.13;4.50;;;19.60;99.90;;;;;;4997529;28;20451;-81
2022/08/01 04:36:15;;;;;;;8.50;4.70;;;19.60;99.90;;;;;;4997201;28;20998;-81
2022/08/01 04:38:45;;;;;;;7.60;4.90;;;19.70;99.90;;;;;;5014538;28;20434;-78
2022/08/01 04:41:29;;;;;;;6.00;4.10;;;19.70;99.90;;;;;;4997137;28;20802;-81
2022/08/01 04:44:06;;;;;;;8.07;4.40;;;19.80;99.90;;;;;;4977974;28;20535;-81
2022/08/01 04:46:39;;;;;;;4.73;3.93;;;19.90;99.90;;;;;;4979196;28;20439;-81
2022/08/01 04:49:11;;;;;;;6.33;4.50;;;19.90;99.90;;;;;;4979015;28;20441;-81
2022/08/01 04:52:02;;;;;;;6.63;4.23;;;20.00;99.90;;;;;;4979228;28;20455;-78
2022/08/01 04:55:02;;;;;;;5.10;4.33;;;20.10;99.90;;;;;;4979332;28;20813;-81
2022/08/01 04:57:33;;;;;;;5.73;4.50;;;20.20;99.90;;;;;;4961815;28;20461;-78
2022/08/01 05:00:06;;;;;;;5.20;4.67;;;20.30;99.90;;;;;;4978966;28;20440;-79
2022/08/01 05:02:34;;;;;;;4.90;4.50;;;20.30;99.90;;;;;;4978721;28;20554;-79
2022/08/01 05:05:15;;;;;;;5.60;4.47;;;20.40;99.90;;;;;;4978703;28;20413;-78
2022/08/01 05:07:45;;;;;;;5.83;4.63;;;20.40;99.90;;;;;;4978686;28;20484;-81
2022/08/01 05:10:10;;;;;;;5.30;4.20;;;20.50;99.90;;;;;;4978925;28;21010;-78
2022/08/01 05:12:37;;;;;;;6.30;4.67;;;20.60;99.90;;;;;;4978650;28;20540;-78
2022/08/01 05:15:17;;;;;;;9.73;4.13;;;20.60;99.90;;;;;;4978359;28;20221;-81
2022/08/01 05:17:52;;;;;;;5.17;4.70;;;20.70;99.90;;;;;;4978344;28;20448;-78
2022/08/01 05:20:18;;;;;;;4.07;3.67;;;20.80;99.90;;;;;;4977926;28;20429;-78
2022/08/01 05:22:49;;;;;;;5.00;4.10;;;20.80;99.90;;;;;;4974214;28;20492;-79
2022/08/01 05:25:19;;;;;;;4.60;4.20;;;20.90;99.90;;;;;;4977539;28;20459;-77
2022/08/01 05:27:46;;;;;;;4.17;3.87;;;21.00;99.90;;;;;;4978182;28;20561;-81
2022/08/01 05:30:12;;;;;;;4.30;4.00;;;21.00;99.90;;;;;;4994575;28;20426;-79
2022/08/01 05:32:44;;;;;;;3.80;3.40;;;21.10;99.90;;;;;;4978072;28;20849;-78
2022/08/01 05:35:10;;;;;;;4.47;4.07;;;21.10;99.90;;;;;;4976629;28;20532;-81
2022/08/01 05:37:39;;;;;;;10.23;4.00;;;21.20;99.90;;;;;;4977713;28;20540;-78
2022/08/01 05:40:10;;;;;;;6.20;3.80;;;21.30;99.90;;;;;;4977900;28;20876;-80
2022/08/01 05:42:48;;;;;;;4.87;4.47;;;21.30;99.80;;;;;;4986484;28;20715;-81
2022/08/01 05:45:18;;;;;;;4.17;3.80;;;21.40;99.80;;;;;;4994921;28;20420;-78
2022/08/01 05:47:46;;;;;;;5.10;4.20;;;21.40;99.60;;;;;;4995763;28;20456;-78
2022/08/01 05:50:13;;;;;;;4.97;4.47;;;21.50;99.60;;;;;;4997389;28;20500;-79
2022/08/01 05:52:54;;;;;;;4.17;3.80;;;21.50;99.50;;;;;;4981944;28;20560;-81
2022/08/01 05:55:23;;;;;;;5.03;4.57;;;21.60;99.50;;;;;;5001401;28;20436;-78
2022/08/01 05:57:52;;;;;;;4.63;4.23;;;21.70;99.40;;;;;;4994212;28;20807;-82
2022/08/01 06:00:24;;;;;;;8.43;4.30;;;21.70;99.30;;;;;;4997163;28;20416;-78
2022/08/01 06:02:50;;;;;;;4.63;3.50;;;21.80;99.10;;;;;;4996062;28;21011;-78
2022/08/01 06:05:23;;;;;;;6.23;4.17;;;21.80;99.00;;;;;;4993024;28;20516;-80
2022/08/01 06:07:49;;;;;;;4.27;3.87;;;21.90;99.00;;;;;;4990454;28;20472;-79
2022/08/01 06:10:17;;;;;;;5.90;4.37;;;21.90;98.90;;;;;;4987148;28;20470;-78
2022/08/01 06:13:02;;;;;;;4.53;4.13;;;22.00;99.00;;;;;;5015246;28;20974;-81
2022/08/01 06:15:29;;;;;;;4.77;4.37;;;22.10;98.90;;;;;;4994276;28;20478;-78
2022/08/01 06:18:39;;;;;;;4.20;3.80;;;22.10;98.80;;;;;;4987363;28;20482;-80
2022/08/01 06:21:13;;;;;;;4.20;3.80;;;22.20;98.60;;;;;;4910385;29;20444;-81
2022/08/01 06:24:08;;;;;;;4.90;4.43;;;22.30;98.50;;;;;;4979406;28;20516;-80
2022/08/01 06:26:42;;;;;;;6.37;4.40;;;22.30;98.40;;;;;;4977592;28;20966;-80
2022/08/01 06:29:17;;;;;;;4.10;3.70;;;22.40;98.40;;;;;;4988751;28;20964;-81
2022/08/01 06:31:54;;;;;;;4.43;3.80;;;22.50;98.40;;;;;;4985706;28;20460;-81
2022/08/01 06:34:35;;;;;;;4.27;3.53;;;22.60;98.30;;;;;;4996342;28;20429;-81
2022/08/01 06:37:05;;;;;;;4.30;3.97;;;22.60;98.30;;;;;;4993596;28;20495;-79
2022/08/01 06:39:40;;;;;;;4.33;4.00;;;22.70;98.10;;;;;;4990649;28;20512;-81
2022/08/01 06:42:11;;;;;;;6.90;4.23;;;22.80;98.10;;;;;;4995468;28;20496;-80
2022/08/01 06:44:39;;;;;;;3.53;3.07;;;22.90;98.00;;;;;;4995582;28;20424;-80
2022/08/01 06:47:09;;;;;;;7.33;4.03;;;23.00;97.90;;;;;;4989161;28;20814;-81
2022/08/01 06:49:39;;;;;;;4.77;4.37;;;23.00;98.10;;;;;;4994713;28;20925;-79
2022/08/01 06:52:06;;;;;;;4.03;3.63;;;23.10;97.70;;;;;;4993290;28;20456;-79
2022/08/01 06:54:47;;;;;;;4.20;3.50;;;23.20;97.50;;;;;;4993768;28;20414;-80
2022/08/01 06:57:21;;;;;;;5.00;4.17;;;23.30;97.50;;;;;;4992402;28;20459;-77
2022/08/01 06:59:48;;;;;;;6.73;3.77;;;23.40;97.50;;;;;;4989639;28;21033;-78
2022/08/01 07:02:18;;;;;;;3.77;3.40;;;23.40;97.30;;;;;;4989396;28;20491;-79
2022/08/01 07:04:44;;;;;;;6.13;3.63;;;23.50;97.40;;;;;;4982927;28;20874;-77
2022/08/01 07:07:14;;;;;;;5.83;4.40;;;23.50;97.30;;;;;;4989069;28;20491;-80
2022/08/01 07:09:43;;;;;;;4.87;3.50;;;23.60;97.20;;;;;;4991367;28;20949;-79
2022/08/01 07:12:14;;;;;;;5.10;3.10;;;23.70;97.10;;;;;;4999002;28;20465;-79
2022/08/01 07:14:46;;;;;;;3.30;2.97;;;23.80;97.10;;;;;;5000135;28;20498;-81
2022/08/01 07:17:13;;;;;;;8.47;3.80;;;23.90;96.70;;;;;;4995668;28;20982;-78
2022/08/01 07:20:05;;;;;;;3.67;2.70;;;23.90;96.40;;;;;;4997253;28;20452;-81
2022/08/01 07:22:41;;;;;;;9.50;5.70;;;24.00;96.40;;;;;;4993563;28;20483;-80
2022/08/01 07:25:09;;;;;;;16.97;12.20;;;24.10;96.30;;;;;;4983749;28;20419;-77
2022/08/01 07:27:38;;;;;;;4.87;4.47;;;24.20;96.10;;;;;;4992375;28;20472;-78
2022/08/01 07:30:11;;;;;;;22.10;13.70;;;24.20;95.80;;;;;;4990373;28;20451;-81
2022/08/01 07:32:40;;;;;;;7.63;4.30;;;24.30;95.50;;;;;;4982718;28;20469;-77
2022/08/01 07:35:13;;;;;;;4.40;3.60;;;24.40;95.60;;;;;;4985649;28;20978;-78
2022/08/01 07:37:49;;;;;;;4.97;4.47;;;24.40;95.60;;;;;;4990936;28;20470;-82
2022/08/01 07:40:21;;;;;;;4.93;3.63;;;24.50;95.50;;;;;;4983215;28;20860;-82
2022/08/01 07:42:55;;;;;;;3.37;3.07;;;24.60;95.40;;;;;;4991409;28;20503;-82
2022/08/01 07:45:29;;;;;;;3.50;3.30;;;24.70;95.40;;;;;;5005374;28;20400;-81
2022/08/01 07:47:55;;;;;;;3.57;2.93;;;24.80;95.50;;;;;;4990565;28;20556;-78
2022/08/01 07:50:23;;;;;;;3.80;3.50;;;24.90;95.20;;;;;;4988998;28;20803;-79
2022/08/01 07:52:49;;;;;;;3.80;3.00;;;24.90;95.10;;;;;;5020849;28;20463;-78
2022/08/01 07:55:21;;;;;;;3.93;3.13;;;25.00;95.20;;;;;;4987314;28;20431;-81
2022/08/01 07:57:55;;;;;;;3.60;3.30;;;25.10;94.60;;;;;;4982573;28;20884;-78
2022/08/01 08:00:28;;;;;;;3.90;3.00;;;25.20;94.50;;;;;;4994815;28;20440;-82
2022/08/01 08:02:59;;;;;;;3.10;2.80;;;25.30;94.30;;;;;;5014342;28;20497;-78
2022/08/01 08:05:30;;;;;;;4.93;2.87;;;25.30;94.30;;;;;;4997145;28;20522;-82
2022/08/01 08:07:58;;;;;;;3.00;2.80;;;25.40;94.30;;;;;;4998123;28;20477;-81
2022/08/01 08:10:30;;;;;;;3.53;3.23;;;25.50;94.30;;;;;;4995049;28;20440;-78
2022/08/01 08:13:27;;;;;;;3.50;3.20;;;25.50;94.40;;;;;;4988812;28;20494;-82
2022/08/01 08:15:59;;;;;;;7.23;3.17;;;25.60;94.00;;;;;;4988612;28;20479;-79
2022/08/01 08:18:25;;;;;;;2.80;2.60;;;25.70;93.20;;;;;;4987617;28;20456;-78
2022/08/01 08:21:11;;;;;;;2.73;2.53;;;25.70;92.50;;;;;;4991040;28;20826;-81
2022/08/01 08:26:29;;;;;;;3.17;2.53;;;25.90;92.50;;;;;;5005607;28;20418;-78
2022/08/01 08:28:56;;;;;;;4.57;2.60;;;26.00;91.90;;;;;;4987733;28;20446;-78
2022/08/01 08:31:23;;;;;;;2.67;2.47;;;26.10;91.70;;;;;;5011229;28;20437;-78
2022/08/01 08:33:55;;;;;;;265.70;135.53;;;26.20;91.80;;;;;;4990681;28;20426;-80
2022/08/01 08:36:24;;;;;;;12.67;9.67;;;26.30;91.90;;;;;;4986573;28;20431;-82
2022/08/01 08:38:51;;;;;;;18.40;11.50;;;26.40;91.90;;;;;;4985834;28;20409;-82
2022/08/01 08:41:23;;;;;;;6.90;3.10;;;26.50;92.00;;;;;;4987759;28;20491;-82
2022/08/01 08:43:53;;;;;;;3.10;2.80;;;26.60;91.00;;;;;;4988598;28;20468;-78
2022/08/01 08:46:20;;;;;;;5.90;2.80;;;26.70;91.10;;;;;;4984548;28;20969;-78
2022/08/01 08:48:58;;;;;;;3.40;2.90;;;26.80;91.10;;;;;;4988764;28;20447;-82
2022/08/01 08:51:35;;;;;;;3.33;2.40;;;26.90;90.70;;;;;;5008897;28;20468;-82
2022/08/01 08:54:09;;;;;;;2.30;2.20;;;26.90;91.00;;;;;;4989352;28;20854;-79
2022/08/01 08:56:38;;;;;;;2.73;2.33;;;27.00;90.70;;;;;;4991341;28;20482;-79
2022/08/01 08:59:16;;;;;;;2.60;2.40;;;27.10;90.40;;;;;;4989819;28;20433;-81
2022/08/01 09:01:48;;;;;;;2.63;2.40;;;27.10;90.50;;;;;;4988044;28;21072;-81
2022/08/01 09:04:17;;;;;;;5.07;2.23;;;27.30;90.90;;;;;;4990057;28;20420;-80
2022/08/01 09:06:59;;;;;;;2.97;2.77;;;27.30;89.90;;;;;;5004789;28;20511;-79
2022/08/01 09:09:30;;;;;;;19.83;14.27;;;27.40;88.60;;;;;;4985556;28;20429;-82
2022/08/01 09:12:00;;;;;;;9.40;6.57;;;27.50;87.90;;;;;;4983589;28;20444;-81
2022/08/01 09:14:34;;;;;;;9.48;6.95;;;27.60;88.70;;;;;;4978911;28;20511;-79
2022/08/01 09:17:18;;;;;;;4.33;2.83;;;27.70;89.50;;;;;;4983719;28;20452;-81
2022/08/01 09:19:54;;;;;;;7.27;3.10;;;27.80;88.50;;;;;;4999057;28;20430;-77
2022/08/01 09:22:27;;;;;;;3.70;2.30;;;27.90;89.50;;;;;;4976755;28;20487;-79
2022/08/01 09:25:02;;;;;;;3.90;2.33;;;28.10;87.50;;;;;;4984342;28;20918;-79
2022/08/01 09:27:33;;;;;;;4.77;2.70;;;28.20;84.20;;;;;;4985505;28;20497;-79
2022/08/01 09:30:20;;;;;;;2.00;1.90;;;28.40;85.20;;;;;;4989839;28;20427;-78
2022/08/01 09:33:02;;;;;;;5.93;3.27;;;28.40;88.50;;;;;;4986364;28;20458;-78
2022/08/01 09:35:37;;;;;;;2.63;2.43;;;28.60;89.00;;;;;;4984546;28;20952;-78
2022/08/01 09:38:26;;;;;;;2.23;2.03;;;28.70;83.70;;;;;;4985486;28;20930;-79
2022/08/01 09:41:02;;;;;;;2.80;2.40;;;28.90;87.10;;;;;;5016209;28;20825;-80
2022/08/01 09:43:33;;;;;;;3.10;2.80;;;28.80;88.90;;;;;;4982693;28;21011;-79
2022/08/01 09:46:05;;;;;;;2.33;2.13;;;28.90;86.90;;;;;;4989437;28;20505;-77
2022/08/01 09:48:41;;;;;;;2.93;2.63;;;28.80;88.70;;;;;;5003037;28;20516;-79
2022/08/01 09:51:26;;;;;;;2.63;2.30;;;28.90;85.00;;;;;;4987891;28;20520;-80
2022/08/01 09:53:55;;;;;;;2.77;2.47;;;29.00;88.60;;;;;;5007362;28;20928;-78
2022/08/01 09:56:25;;;;;;;2.57;2.27;;;28.90;86.40;;;;;;4993578;28;20433;-79
2022/08/01 09:59:02;;;;;;;3.33;2.50;;;28.90;89.30;;;;;;4994863;28;21174;-79
2022/08/01 10:01:49;;;;;;;2.70;2.50;;;28.90;88.00;;;;;;4992715;28;20934;-78
2022/08/01 10:04:24;;;;;;;2.47;2.37;;;29.00;83.70;;;;;;5011758;28;20450;-78
2022/08/01 10:07:05;;;;;;;2.60;2.40;;;29.10;79.00;;;;;;4995199;28;20467;-80
2022/08/01 10:09:39;;;;;;;2.27;2.17;;;29.20;81.40;;;;;;4995658;28;20422;-80
2022/08/01 10:12:32;;;;;;;4.13;3.23;;;29.30;81.10;;;;;;4994274;28;21010;-81
2022/08/01 10:15:02;;;;;;;2.93;2.73;;;29.50;82.30;;;;;;4992710;28;20435;-80
2022/08/01 10:17:34;;;;;;;4.53;2.50;;;29.60;78.60;;;;;;4991397;28;21017;-80
2022/08/01 10:20:06;;;;;;;7.97;7.07;;;29.70;78.70;;;;;;5006795;28;20393;-79
2022/08/01 10:22:37;;;;;;;41.23;29.07;;;29.90;79.00;;;;;;4988220;28;20485;-80
2022/08/01 10:25:17;;;;;;;2.77;2.57;;;30.00;77.50;;;;;;4987449;28;20967;-81
2022/08/01 10:27:49;;;;;;;5.60;2.90;;;30.10;78.40;;;;;;4963706;28;20494;-80
2022/08/01 10:30:24;;;;;;;3.70;2.90;;;30.10;79.50;;;;;;4981347;28;20426;-80
2022/08/01 10:32:59;;;;;;;3.50;3.20;;;30.00;80.30;;;;;;4984682;28;20453;-80
2022/08/01 10:35:31;;;;;;;2.70;2.40;;;30.00;80.20;;;;;;4988147;28;20799;-80
2022/08/01 10:38:04;;;;;;;2.60;2.40;;;30.00;79.40;;;;;;4984259;28;20456;-81
2022/08/01 10:40:49;;;;;;;3.20;3.00;;;29.90;77.20;;;;;;4982283;28;20564;-79
2022/08/01 10:44:05;;;;;;;3.00;2.80;;;29.70;81.70;;;;;;4986636;28;20488;-78
2022/08/01 10:47:17;;;;;;;4.80;2.97;;;29.50;84.60;;;;;;4998649;28;20497;-81
2022/08/01 10:50:50;;;;;;;3.63;3.33;;;29.40;79.10;;;;;;5008913;28;20421;-78
2022/08/01 10:57:13;;;;;;;4.73;2.93;;;29.40;76.90;;;;;;4999464;28;20460;-77
2022/08/01 11:00:01;;;;;;;9.00;2.70;;;29.50;76.80;;;;;;4987970;28;20447;-83
2022/08/01 11:03:18;;;;;;;3.07;2.87;;;29.30;82.30;;;;;;4990545;28;20500;-74
2022/08/01 11:06:03;;;;;;;4.23;3.10;;;29.20;84.00;;;;;;4984962;28;20434;-77
2022/08/01 11:09:15;;;;;;;3.60;3.30;;;29.20;83.10;;;;;;4991798;28;20547;-78
2022/08/01 11:12:28;;;;;;;3.90;3.50;;;29.00;84.30;;;;;;4993579;28;21002;-76
2022/08/01 11:15:28;;;;;;;3.37;3.07;;;28.90;85.70;;;;;;5004237;28;20850;-82
2022/08/01 11:18:03;;;;;;;3.13;2.87;;;28.90;85.80;;;;;;4991694;28;20550;-78
2022/08/01 11:21:23;;;;;;;3.17;2.87;;;28.80;86.30;;;;;;4993716;28;20418;-77
2022/08/01 11:24:13;;;;;;;4.00;3.17;;;28.60;86.40;;;;;;4999080;28;20467;-83
2022/08/01 11:27:24;;;;;;;3.40;3.10;;;28.60;84.50;;;;;;4993875;28;20475;-82
2022/08/01 11:30:26;;;;;;;5.80;2.70;;;28.70;87.10;;;;;;5005698;28;20437;-78
2022/08/01 11:33:00;;;;;;;4.50;3.33;;;28.70;86.30;;;;;;4971944;28;20475;-83
2022/08/01 11:35:58;;;;;;;4.10;3.70;;;28.70;82.80;;;;;;4990955;28;20441;-79
2022/08/01 11:38:31;;;;;;;3.90;3.50;;;28.60;85.90;;;;;;5127257;23;21045;-88
2022/08/01 11:41:27;;;;;;;4.43;4.03;;;28.80;79.70;;;;;;5016331;28;20941;-90
2022/08/01 11:44:06;;;;;;;5.00;3.77;;;29.00;76.40;;;;;;5010076;28;20439;-88
2022/08/01 11:46:48;;;;;;;4.53;4.13;;;29.00;84.00;;;;;;5027732;28;20492;-88
2022/08/01 11:49:45;;;;;;;4.70;4.30;;;29.10;78.10;;;;;;5025178;28;20444;-87
2022/08/01 11:52:35;;;;;;;4.50;4.10;;;29.20;79.20;;;;;;5002768;28;20460;-91
2022/08/01 11:55:01;;;;;;;5.40;4.63;;;29.10;85.20;;;;;;5009486;28;20479;-92
2022/08/01 11:57:30;;;;;;;7.47;4.90;;;29.00;85.10;;;;;;5036120;28;20426;-91
2022/08/01 11:59:58;;;;;;;4.23;3.83;;;29.00;86.20;;;;;;5036263;28;20626;-90
2022/08/01 12:02:28;;;;;;;4.50;4.17;;;29.10;83.60;;;;;;5031313;28;20476;-88
2022/08/01 12:04:55;;;;;;;5.80;4.20;;;29.20;85.00;;;;;;5013330;28;20441;-91
2022/08/01 12:07:22;;;;;;;4.97;4.50;;;29.10;86.00;;;;;;5010021;28;20564;-87
2022/08/01 12:09:48;;;;;;;4.50;4.10;;;29.10;85.10;;;;;;5029902;28;20447;-92
2022/08/01 12:12:18;;;;;;;4.57;3.97;;;29.10;85.60;;;;;;5055313;28;20463;-90
2022/08/01 12:14:45;;;;;;;4.87;4.47;;;29.20;86.00;;;;;;5019144;28;20948;-91
2022/08/01 12:17:11;;;;;;;4.73;4.33;;;29.20;86.00;;;;;;5026413;28;20453;-89
2022/08/01 12:19:36;;;;;;;6.00;5.40;;;29.20;86.30;;;;;;5013088;28;20450;-90
2022/08/01 12:22:13;;;;;;;5.97;5.10;;;29.10;86.40;;;;;;5007093;28;20225;-91
2022/08/01 12:24:44;;;;;;;5.30;4.90;;;28.90;87.60;;;;;;5023252;28;20207;-87
2022/08/01 12:27:12;;;;;;;5.90;5.40;;;29.00;80.30;;;;;;5055422;28;20434;-90
2022/08/01 12:29:40;;;;;;;7.33;6.10;;;29.10;83.90;;;;;;5041451;28;20416;-91
2022/08/01 12:32:43;;;;;;;5.67;5.17;;;29.30;83.70;;;;;;5018658;28;20783;-89
2022/08/01 12:35:14;;;;;;;6.07;5.47;;;29.30;83.50;;;;;;4903982;29;20448;-92
2022/08/01 12:37:48;;;;;;;7.90;5.87;;;29.30;84.90;;;;;;5040821;28;20459;-88
2022/08/01 12:40:15;;;;;;;5.67;4.90;;;29.40;80.20;;;;;;5022184;28;20427;-90
2022/08/01 12:42:43;;;;;;;5.90;5.30;;;29.40;84.00;;;;;;5012170;28;20502;-88
2022/08/01 12:45:13;;;;;;;8.20;5.47;;;29.50;84.90;;;;;;5042326;28;20425;-89
2022/08/01 12:47:40;;;;;;;6.03;5.30;;;29.30;86.10;;;;;;5015710;28;20438;-87
2022/08/01 12:50:21;;;;;;;5.87;5.27;;;29.30;86.60;;;;;;5017430;28;20443;-93
2022/08/01 12:52:48;;;;;;;8.10;5.87;;;29.30;86.10;;;;;;5015071;28;20450;-91
2022/08/01 12:55:20;;;;;;;7.27;5.30;;;29.40;85.60;;;;;;5024700;28;20415;-93
2022/08/01 12:57:52;;;;;;;5.47;4.87;;;29.40;85.00;;;;;;5026722;28;20435;-91
2022/08/01 13:00:22;;;;;;;5.07;4.60;;;29.40;82.50;;;;;;5025938;28;20431;-93
2022/08/01 13:03:10;;;;;;;5.07;4.67;;;29.60;80.90;;;;;;5016020;28;20573;-93
2022/08/01 13:05:50;;;;;;;4.10;3.80;;;29.70;79.20;;;;;;5018702;28;20514;-92
2022/08/01 13:08:29;;;;;;;4.20;3.70;;;29.50;84.50;;;;;;5012977;28;20990;-91
2022/08/01 13:11:04;;;;;;;6.67;3.70;;;29.60;81.20;;;;;;5017472;28;20924;-93
2022/08/01 13:13:52;;;;;;;4.53;4.10;;;29.70;78.40;;;;;;5001416;28;21010;-93
2022/08/01 13:16:20;;;;;;;6.23;5.30;;;29.70;85.10;;;;;;5033217;28;20465;-92
2022/08/01 13:18:51;;;;;;;4.33;4.03;;;29.50;85.40;;;;;;5017199;28;20933;-92
2022/08/01 13:21:20;;;;;;;6.67;4.43;;;29.60;86.00;;;;;;5019311;28;20507;-91
2022/08/01 13:24:10;;;;;;;4.40;4.00;;;29.50;86.70;;;;;;5038329;28;20510;-93
2022/08/01 13:26:51;;;;;;;4.37;4.00;;;29.40;87.00;;;;;;5012128;28;20547;-92
2022/08/01 13:29:28;;;;;;;5.40;4.20;;;29.50;87.00;;;;;;5003229;28;20879;-92
2022/08/01 13:31:53;;;;;;;6.93;4.73;;;29.60;86.60;;;;;;5029282;28;20850;-91
2022/08/01 13:34:33;;;;;;;4.13;3.73;;;29.70;85.60;;;;;;5015938;28;20450;-92
2022/08/01 13:37:02;;;;;;;5.00;3.83;;;29.80;86.10;;;;;;5015677;28;20199;-91
2022/08/01 13:39:47;;;;;;;5.37;4.13;;;29.80;85.80;;;;;;5030643;28;20531;-93
2022/08/01 13:42:15;;;;;;;3.93;3.50;;;29.70;86.20;;;;;;5015307;28;20468;-91